createdAt,value
2018-03-23T19:52:42.805Z,22.27
2018-03-23T19:55:55.116Z,26.77
2018-03-23T19:58:22.593Z,25.10
2018-03-23T20:00:50.134Z,27.43
2018-03-23T20:03:18.038Z,29.30
2018-03-23T20:05:45.504Z,26.50
2018-03-23T20:08:12.970Z,28.67
2018-03-23T20:10:41.215Z,27.97
2018-03-23T20:13:08.684Z,27.73
2018-03-23T20:15:36.172Z,26.77
2018-03-23T20:18:09.464Z,27.20
2018-03-23T20:20:42.686Z,30.45
2018-03-23T20:23:10.230Z,29.20
2018-03-23T20:25:37.958Z,26.70
2018-03-23T20:31:08.434Z,35.45
2018-03-23T20:33:36.709Z,35.37
2018-03-23T20:36:04.234Z,29.02
2018-03-23T20:38:31.701Z,30.90
2018-03-23T20:40:59.249Z,31.37
2018-03-23T20:43:26.819Z,31.57
2018-03-23T20:45:55.128Z,28.33
2018-03-23T20:48:22.610Z,25.60
2018-03-23T20:50:50.104Z,29.87
2018-03-23T20:53:18.420Z,26.62
2018-03-23T20:55:45.990Z,25.02
2018-03-23T20:58:14.267Z,28.87
2018-03-23T21:00:41.774Z,26.87
2018-03-23T21:03:09.451Z,23.73
2018-03-23T21:05:37.137Z,26.73
2018-03-23T21:08:04.751Z,27.85
2018-03-23T21:10:32.272Z,26.75
2018-03-23T21:12:59.884Z,24.70
2018-03-23T21:15:27.650Z,24.60
2018-03-23T21:17:55.164Z,23.92
2018-03-23T21:20:22.663Z,26.25
2018-03-23T21:22:51.256Z,36.22
2018-03-23T21:25:19.527Z,42.28
2018-03-23T21:27:47.040Z,34.17
2018-03-23T21:30:14.596Z,30.85
2018-03-23T21:32:42.178Z,25.35
2018-03-23T21:35:09.830Z,34.40
2018-03-23T21:37:37.379Z,28.58
2018-03-23T21:40:04.913Z,26.83
2018-03-23T21:42:33.259Z,31.58
2018-03-23T21:45:00.772Z,30.75
2018-03-23T21:47:28.282Z,32.30
2018-03-23T21:49:55.803Z,30.45
2018-03-23T21:52:23.312Z,32.58
2018-03-23T21:54:51.944Z,32.47
2018-03-23T21:57:19.545Z,36.05
2018-03-23T21:59:47.413Z,34.33
2018-03-23T22:02:16.513Z,33.92
2018-03-23T22:04:44.050Z,39.85
2018-03-23T22:07:20.385Z,46.40
2018-03-23T22:09:49.343Z,40.05
2018-03-23T22:12:17.632Z,41.05
2018-03-23T22:14:45.904Z,35.40
2018-03-23T22:17:13.568Z,47.47
2018-03-23T22:19:42.036Z,38.10
2018-03-23T22:22:09.552Z,41.17
2018-03-23T22:24:37.144Z,40.55
2018-03-23T22:27:04.660Z,45.72
2018-03-23T22:29:32.168Z,45.50
2018-03-23T22:31:59.675Z,42.70
2018-03-23T22:34:27.171Z,40.42
2018-03-23T22:36:54.673Z,35.55
2018-03-23T22:39:22.947Z,44.35
2018-03-23T22:41:51.216Z,39.05
2018-03-23T22:44:19.537Z,37.03
2018-03-23T22:46:47.036Z,38.28
2018-03-23T22:49:14.527Z,37.03
2018-03-23T22:51:42.801Z,34.20
2018-03-23T22:54:11.109Z,31.67
2018-03-23T22:56:38.619Z,38.90
2018-03-23T22:59:06.204Z,38.97
2018-03-23T23:01:33.726Z,47.15
2018-03-23T23:04:01.215Z,42.13
2018-03-23T23:06:29.690Z,39.97
2018-03-23T23:08:57.242Z,47.10
2018-03-23T23:11:24.747Z,44.78
2018-03-23T23:13:52.264Z,51.03
2018-03-23T23:16:19.780Z,50.10
2018-03-23T23:18:47.290Z,46.05
2018-03-23T23:21:15.580Z,49.40
2018-03-23T23:23:43.855Z,50.00
2018-03-23T23:26:11.351Z,42.78
2018-03-23T23:28:38.868Z,50.28
2018-03-23T23:31:07.128Z,41.13
2018-03-23T23:33:34.649Z,39.03
2018-03-23T23:36:02.136Z,40.85
2018-03-23T23:38:29.639Z,44.78
2018-03-23T23:40:57.137Z,48.55
2018-03-23T23:43:24.648Z,46.65
2018-03-23T23:45:52.150Z,41.88
2018-03-23T23:48:20.071Z,36.08
2018-03-23T23:50:48.328Z,42.58
2018-03-23T23:53:15.831Z,37.83
2018-03-23T23:55:43.335Z,34.70
2018-03-23T23:58:10.833Z,34.38
